sensor_id;sensor_type;location;lat;lon;timestamp;P1;durP1;ratioP1;P2;durP2;ratioP2
74799;SDS011;63326;45.088;7.658;2023-05-07T00:00:56;2.70;;;1.60;;
74799;SDS011;63326;45.088;7.658;2023-05-07T00:03:23;4.97;;;2.17;;
74799;SDS011;63326;45.088;7.658;2023-05-07T00:05:50;3.67;;;2.22;;
74799;SDS011;63326;45.088;7.658;2023-05-07T00:08:16;5.40;;;2.47;;
74799;SDS011;63326;45.088;7.658;2023-05-07T00:10:43;5.10;;;2.08;;
74799;SDS011;63326;45.088;7.658;2023-05-07T00:13:10;4.40;;;2.33;;
74799;SDS011;63326;45.088;7.658;2023-05-07T00:15:36;6.45;;;2.50;;
74799;SDS011;63326;45.088;7.658;2023-05-07T00:18:03;5.85;;;2.13;;
74799;SDS011;63326;45.088;7.658;2023-05-07T00:20:30;3.90;;;2.25;;
74799;SDS011;63326;45.088;7.658;2023-05-07T00:22:58;8.30;;;2.88;;
74799;SDS011;63326;45.088;7.658;2023-05-07T00:25:25;4.93;;;2.47;;
74799;SDS011;63326;45.088;7.658;2023-05-07T00:27:51;4.70;;;2.75;;
74799;SDS011;63326;45.088;7.658;2023-05-07T00:30:18;4.28;;;2.67;;
74799;SDS011;63326;45.088;7.658;2023-05-07T00:32:45;6.13;;;2.30;;
74799;SDS011;63326;45.088;7.658;2023-05-07T00:35:12;5.20;;;3.25;;
74799;SDS011;63326;45.088;7.658;2023-05-07T00:37:39;5.35;;;2.72;;
74799;SDS011;63326;45.088;7.658;2023-05-07T00:40:06;4.90;;;2.88;;
74799;SDS011;63326;45.088;7.658;2023-05-07T00:42:34;4.35;;;2.30;;
74799;SDS011;63326;45.088;7.658;2023-05-07T00:45:00;4.15;;;3.00;;
74799;SDS011;63326;45.088;7.658;2023-05-07T00:47:27;5.05;;;3.28;;
74799;SDS011;63326;45.088;7.658;2023-05-07T00:49:54;6.43;;;3.15;;
74799;SDS011;63326;45.088;7.658;2023-05-07T00:52:21;3.88;;;2.78;;
74799;SDS011;63326;45.088;7.658;2023-05-07T00:54:50;4.63;;;2.75;;
74799;SDS011;63326;45.088;7.658;2023-05-07T00:57:17;4.57;;;2.50;;
74799;SDS011;63326;45.088;7.658;2023-05-07T01:02:11;4.57;;;3.08;;
74799;SDS011;63326;45.088;7.658;2023-05-07T01:04:38;6.28;;;2.70;;
74799;SDS011;63326;45.088;7.658;2023-05-07T01:07:05;6.82;;;3.08;;
74799;SDS011;63326;45.088;7.658;2023-05-07T01:09:32;5.07;;;2.80;;
74799;SDS011;63326;45.088;7.658;2023-05-07T01:12:01;4.13;;;2.55;;
74799;SDS011;63326;45.088;7.658;2023-05-07T01:14:30;5.38;;;2.60;;
74799;SDS011;63326;45.088;7.658;2023-05-07T01:16:57;4.50;;;2.63;;
74799;SDS011;63326;45.088;7.658;2023-05-07T01:19:25;5.70;;;3.40;;
74799;SDS011;63326;45.088;7.658;2023-05-07T01:21:53;4.50;;;2.38;;
74799;SDS011;63326;45.088;7.658;2023-05-07T01:24:42;4.18;;;2.78;;
74799;SDS011;63326;45.088;7.658;2023-05-07T01:27:09;5.18;;;2.97;;
74799;SDS011;63326;45.088;7.658;2023-05-07T01:29:36;5.35;;;3.30;;
74799;SDS011;63326;45.088;7.658;2023-05-07T01:32:03;4.82;;;3.25;;
74799;SDS011;63326;45.088;7.658;2023-05-07T01:34:32;5.60;;;3.33;;
74799;SDS011;63326;45.088;7.658;2023-05-07T01:37:02;4.68;;;2.60;;
74799;SDS011;63326;45.088;7.658;2023-05-07T01:39:30;5.30;;;3.05;;
74799;SDS011;63326;45.088;7.658;2023-05-07T01:41:57;5.15;;;2.55;;
74799;SDS011;63326;45.088;7.658;2023-05-07T01:44:26;9.68;;;3.22;;
74799;SDS011;63326;45.088;7.658;2023-05-07T01:46:54;7.22;;;3.42;;
74799;SDS011;63326;45.088;7.658;2023-05-07T01:49:22;5.35;;;2.78;;
74799;SDS011;63326;45.088;7.658;2023-05-07T01:51:48;6.88;;;3.33;;
74799;SDS011;63326;45.088;7.658;2023-05-07T01:54:15;3.83;;;2.72;;
74799;SDS011;63326;45.088;7.658;2023-05-07T01:56:43;6.50;;;3.50;;
74799;SDS011;63326;45.088;7.658;2023-05-07T01:59:09;4.60;;;3.10;;
74799;SDS011;63326;45.088;7.658;2023-05-07T02:01:37;5.47;;;2.83;;
74799;SDS011;63326;45.088;7.658;2023-05-07T02:04:03;5.70;;;3.00;;
74799;SDS011;63326;45.088;7.658;2023-05-07T02:06:30;7.25;;;3.65;;
74799;SDS011;63326;45.088;7.658;2023-05-07T02:09:03;3.85;;;2.85;;
74799;SDS011;63326;45.088;7.658;2023-05-07T02:11:29;5.15;;;3.42;;
74799;SDS011;63326;45.088;7.658;2023-05-07T02:13:56;4.97;;;3.28;;
74799;SDS011;63326;45.088;7.658;2023-05-07T02:16:23;5.03;;;3.33;;
74799;SDS011;63326;45.088;7.658;2023-05-07T02:18:51;5.15;;;2.88;;
74799;SDS011;63326;45.088;7.658;2023-05-07T02:21:18;4.40;;;3.58;;
74799;SDS011;63326;45.088;7.658;2023-05-07T02:23:45;6.82;;;3.72;;
74799;SDS011;63326;45.088;7.658;2023-05-07T02:26:11;4.75;;;3.53;;
74799;SDS011;63326;45.088;7.658;2023-05-07T02:28:38;5.47;;;2.92;;
74799;SDS011;63326;45.088;7.658;2023-05-07T02:31:05;7.55;;;3.42;;
74799;SDS011;63326;45.088;7.658;2023-05-07T02:33:33;8.52;;;3.55;;
74799;SDS011;63326;45.088;7.658;2023-05-07T02:36:06;5.97;;;3.88;;
74799;SDS011;63326;45.088;7.658;2023-05-07T02:41:04;7.68;;;3.03;;
74799;SDS011;63326;45.088;7.658;2023-05-07T02:43:31;4.43;;;2.70;;
74799;SDS011;63326;45.088;7.658;2023-05-07T02:46:01;6.90;;;3.60;;
74799;SDS011;63326;45.088;7.658;2023-05-07T02:48:28;5.15;;;2.83;;
74799;SDS011;63326;45.088;7.658;2023-05-07T02:50:55;6.88;;;3.60;;
74799;SDS011;63326;45.088;7.658;2023-05-07T02:53:22;6.00;;;3.17;;
74799;SDS011;63326;45.088;7.658;2023-05-07T02:55:52;5.10;;;3.25;;
74799;SDS011;63326;45.088;7.658;2023-05-07T02:58:20;5.22;;;2.72;;
74799;SDS011;63326;45.088;7.658;2023-05-07T03:00:46;8.35;;;3.85;;
74799;SDS011;63326;45.088;7.658;2023-05-07T03:03:31;5.40;;;3.45;;
74799;SDS011;63326;45.088;7.658;2023-05-07T03:05:58;4.72;;;3.22;;
74799;SDS011;63326;45.088;7.658;2023-05-07T03:08:25;5.43;;;3.25;;
74799;SDS011;63326;45.088;7.658;2023-05-07T03:10:52;5.85;;;3.40;;
74799;SDS011;63326;45.088;7.658;2023-05-07T03:13:19;4.50;;;2.58;;
74799;SDS011;63326;45.088;7.658;2023-05-07T03:15:47;6.28;;;3.28;;
74799;SDS011;63326;45.088;7.658;2023-05-07T03:18:13;6.63;;;3.72;;
74799;SDS011;63326;45.088;7.658;2023-05-07T03:20:41;6.47;;;3.83;;
74799;SDS011;63326;45.088;7.658;2023-05-07T03:23:07;6.10;;;3.63;;
74799;SDS011;63326;45.088;7.658;2023-05-07T03:25:35;7.43;;;3.63;;
74799;SDS011;63326;45.088;7.658;2023-05-07T03:28:02;6.10;;;3.65;;
74799;SDS011;63326;45.088;7.658;2023-05-07T03:30:37;6.20;;;3.53;;
74799;SDS011;63326;45.088;7.658;2023-05-07T03:33:04;6.30;;;4.30;;
74799;SDS011;63326;45.088;7.658;2023-05-07T03:37:59;5.38;;;3.60;;
74799;SDS011;63326;45.088;7.658;2023-05-07T03:40:28;6.07;;;3.72;;
74799;SDS011;63326;45.088;7.658;2023-05-07T03:42:55;6.03;;;3.47;;
74799;SDS011;63326;45.088;7.658;2023-05-07T03:45:25;11.75;;;3.75;;
74799;SDS011;63326;45.088;7.658;2023-05-07T03:48:03;5.88;;;4.05;;
74799;SDS011;63326;45.088;7.658;2023-05-07T03:50:31;7.93;;;4.45;;
74799;SDS011;63326;45.088;7.658;2023-05-07T03:52:58;6.93;;;4.10;;
74799;SDS011;63326;45.088;7.658;2023-05-07T03:55:25;6.82;;;3.95;;
74799;SDS011;63326;45.088;7.658;2023-05-07T03:57:57;7.13;;;4.28;;
74799;SDS011;63326;45.088;7.658;2023-05-07T04:00:26;6.05;;;4.00;;
74799;SDS011;63326;45.088;7.658;2023-05-07T04:02:57;7.35;;;3.70;;
74799;SDS011;63326;45.088;7.658;2023-05-07T04:05:28;5.25;;;3.25;;
74799;SDS011;63326;45.088;7.658;2023-05-07T04:07:58;5.50;;;2.83;;
74799;SDS011;63326;45.088;7.658;2023-05-07T04:10:33;5.28;;;3.22;;
74799;SDS011;63326;45.088;7.658;2023-05-07T04:13:04;5.22;;;3.75;;
74799;SDS011;63326;45.088;7.658;2023-05-07T04:15:36;5.20;;;2.67;;
74799;SDS011;63326;45.088;7.658;2023-05-07T04:18:06;4.38;;;3.05;;
74799;SDS011;63326;45.088;7.658;2023-05-07T04:20:34;4.82;;;2.90;;
74799;SDS011;63326;45.088;7.658;2023-05-07T04:23:05;4.50;;;2.95;;
74799;SDS011;63326;45.088;7.658;2023-05-07T04:25:33;3.65;;;2.33;;
74799;SDS011;63326;45.088;7.658;2023-05-07T04:28:07;4.60;;;2.75;;
74799;SDS011;63326;45.088;7.658;2023-05-07T04:30:34;4.63;;;2.88;;
74799;SDS011;63326;45.088;7.658;2023-05-07T04:33:03;5.55;;;2.80;;
74799;SDS011;63326;45.088;7.658;2023-05-07T04:35:30;6.43;;;3.17;;
74799;SDS011;63326;45.088;7.658;2023-05-07T04:40:25;8.02;;;2.67;;
74799;SDS011;63326;45.088;7.658;2023-05-07T04:42:52;4.50;;;2.55;;
74799;SDS011;63326;45.088;7.658;2023-05-07T04:45:21;6.10;;;2.78;;
74799;SDS011;63326;45.088;7.658;2023-05-07T04:47:49;4.88;;;3.15;;
74799;SDS011;63326;45.088;7.658;2023-05-07T04:50:17;4.93;;;2.58;;
74799;SDS011;63326;45.088;7.658;2023-05-07T04:52:47;4.65;;;2.90;;
74799;SDS011;63326;45.088;7.658;2023-05-07T04:55:13;5.30;;;3.40;;
74799;SDS011;63326;45.088;7.658;2023-05-07T05:00:10;6.22;;;3.13;;
74799;SDS011;63326;45.088;7.658;2023-05-07T05:02:42;6.70;;;2.70;;
74799;SDS011;63326;45.088;7.658;2023-05-07T05:05:12;6.57;;;3.63;;
74799;SDS011;63326;45.088;7.658;2023-05-07T05:07:39;5.90;;;3.13;;
74799;SDS011;63326;45.088;7.658;2023-05-07T05:10:07;4.93;;;3.00;;
74799;SDS011;63326;45.088;7.658;2023-05-07T05:12:37;5.63;;;3.50;;
74799;SDS011;63326;45.088;7.658;2023-05-07T05:15:04;6.38;;;3.58;;
74799;SDS011;63326;45.088;7.658;2023-05-07T05:17:32;5.70;;;3.70;;
74799;SDS011;63326;45.088;7.658;2023-05-07T05:20:02;6.13;;;3.22;;
74799;SDS011;63326;45.088;7.658;2023-05-07T05:22:30;6.20;;;3.47;;
74799;SDS011;63326;45.088;7.658;2023-05-07T05:24:58;6.60;;;3.88;;
74799;SDS011;63326;45.088;7.658;2023-05-07T05:27:26;9.27;;;3.85;;
74799;SDS011;63326;45.088;7.658;2023-05-07T05:29:53;7.82;;;4.75;;
74799;SDS011;63326;45.088;7.658;2023-05-07T05:32:20;8.70;;;4.05;;
74799;SDS011;63326;45.088;7.658;2023-05-07T05:34:50;8.57;;;5.07;;
74799;SDS011;63326;45.088;7.658;2023-05-07T05:37:17;8.18;;;4.38;;
74799;SDS011;63326;45.088;7.658;2023-05-07T05:39:44;6.63;;;4.70;;
74799;SDS011;63326;45.088;7.658;2023-05-07T05:42:12;8.75;;;4.38;;
74799;SDS011;63326;45.088;7.658;2023-05-07T05:44:39;8.80;;;5.22;;
74799;SDS011;63326;45.088;7.658;2023-05-07T05:47:05;6.35;;;4.20;;
74799;SDS011;63326;45.088;7.658;2023-05-07T05:49:33;10.40;;;4.75;;
74799;SDS011;63326;45.088;7.658;2023-05-07T05:52:03;8.15;;;5.00;;
74799;SDS011;63326;45.088;7.658;2023-05-07T05:54:29;6.65;;;4.40;;
74799;SDS011;63326;45.088;7.658;2023-05-07T05:56:56;11.15;;;4.53;;
74799;SDS011;63326;45.088;7.658;2023-05-07T05:59:24;6.70;;;4.57;;
74799;SDS011;63326;45.088;7.658;2023-05-07T06:01:52;8.38;;;4.68;;
74799;SDS011;63326;45.088;7.658;2023-05-07T06:04:19;10.80;;;5.63;;
74799;SDS011;63326;45.088;7.658;2023-05-07T06:06:46;8.30;;;6.03;;
74799;SDS011;63326;45.088;7.658;2023-05-07T06:09:13;7.20;;;4.88;;
74799;SDS011;63326;45.088;7.658;2023-05-07T06:11:42;8.57;;;5.60;;
74799;SDS011;63326;45.088;7.658;2023-05-07T06:14:11;8.25;;;5.28;;
74799;SDS011;63326;45.088;7.658;2023-05-07T06:16:38;7.75;;;4.85;;
74799;SDS011;63326;45.088;7.658;2023-05-07T06:19:06;9.02;;;5.25;;
74799;SDS011;63326;45.088;7.658;2023-05-07T06:21:33;9.13;;;5.45;;
74799;SDS011;63326;45.088;7.658;2023-05-07T06:24:00;7.68;;;5.13;;
74799;SDS011;63326;45.088;7.658;2023-05-07T06:26:27;7.80;;;5.38;;
74799;SDS011;63326;45.088;7.658;2023-05-07T06:28:54;7.43;;;5.15;;
74799;SDS011;63326;45.088;7.658;2023-05-07T06:31:20;6.43;;;4.80;;
74799;SDS011;63326;45.088;7.658;2023-05-07T06:33:56;8.55;;;4.78;;
74799;SDS011;63326;45.088;7.658;2023-05-07T06:36:29;6.95;;;4.40;;
74799;SDS011;63326;45.088;7.658;2023-05-07T06:38:58;8.23;;;4.35;;
74799;SDS011;63326;45.088;7.658;2023-05-07T06:41:25;7.35;;;4.43;;
74799;SDS011;63326;45.088;7.658;2023-05-07T06:43:53;5.45;;;3.72;;
74799;SDS011;63326;45.088;7.658;2023-05-07T06:46:29;8.57;;;4.03;;
74799;SDS011;63326;45.088;7.658;2023-05-07T06:48:56;7.15;;;4.05;;
74799;SDS011;63326;45.088;7.658;2023-05-07T06:51:24;6.57;;;4.13;;
74799;SDS011;63326;45.088;7.658;2023-05-07T06:53:51;5.75;;;3.92;;
74799;SDS011;63326;45.088;7.658;2023-05-07T06:56:18;5.57;;;3.38;;
74799;SDS011;63326;45.088;7.658;2023-05-07T06:58:47;6.65;;;4.38;;
74799;SDS011;63326;45.088;7.658;2023-05-07T07:01:13;6.40;;;4.15;;
74799;SDS011;63326;45.088;7.658;2023-05-07T07:03:42;7.03;;;3.85;;
74799;SDS011;63326;45.088;7.658;2023-05-07T07:06:09;6.93;;;3.63;;
74799;SDS011;63326;45.088;7.658;2023-05-07T07:08:36;5.28;;;3.60;;
74799;SDS011;63326;45.088;7.658;2023-05-07T07:11:06;6.45;;;4.28;;
74799;SDS011;63326;45.088;7.658;2023-05-07T07:13:33;6.50;;;4.15;;
74799;SDS011;63326;45.088;7.658;2023-05-07T07:15:59;6.13;;;3.97;;
74799;SDS011;63326;45.088;7.658;2023-05-07T07:18:27;6.35;;;4.32;;
74799;SDS011;63326;45.088;7.658;2023-05-07T07:20:54;8.60;;;4.38;;
74799;SDS011;63326;45.088;7.658;2023-05-07T07:23:21;6.35;;;3.63;;
74799;SDS011;63326;45.088;7.658;2023-05-07T07:25:48;6.53;;;4.45;;
74799;SDS011;63326;45.088;7.658;2023-05-07T07:28:15;5.72;;;3.90;;
74799;SDS011;63326;45.088;7.658;2023-05-07T07:30:43;6.50;;;4.35;;
74799;SDS011;63326;45.088;7.658;2023-05-07T07:33:10;7.95;;;3.17;;
74799;SDS011;63326;45.088;7.658;2023-05-07T07:35:37;7.40;;;3.40;;
74799;SDS011;63326;45.088;7.658;2023-05-07T07:40:34;5.65;;;3.22;;
74799;SDS011;63326;45.088;7.658;2023-05-07T07:43:01;6.10;;;3.28;;
74799;SDS011;63326;45.088;7.658;2023-05-07T07:45:30;5.68;;;3.58;;
74799;SDS011;63326;45.088;7.658;2023-05-07T07:47:57;4.90;;;2.95;;
74799;SDS011;63326;45.088;7.658;2023-05-07T07:50:23;5.78;;;3.13;;
74799;SDS011;63326;45.088;7.658;2023-05-07T07:53:12;5.07;;;3.17;;
74799;SDS011;63326;45.088;7.658;2023-05-07T07:55:39;4.22;;;3.03;;
74799;SDS011;63326;45.088;7.658;2023-05-07T07:58:08;5.85;;;3.70;;
74799;SDS011;63326;45.088;7.658;2023-05-07T08:00:35;5.93;;;3.53;;
74799;SDS011;63326;45.088;7.658;2023-05-07T08:03:02;4.75;;;3.33;;
74799;SDS011;63326;45.088;7.658;2023-05-07T08:05:33;6.30;;;4.07;;
74799;SDS011;63326;45.088;7.658;2023-05-07T08:08:01;4.63;;;2.90;;
74799;SDS011;63326;45.088;7.658;2023-05-07T08:10:32;4.80;;;2.83;;
74799;SDS011;63326;45.088;7.658;2023-05-07T08:13:06;4.97;;;3.00;;
74799;SDS011;63326;45.088;7.658;2023-05-07T08:15:35;5.55;;;3.38;;
74799;SDS011;63326;45.088;7.658;2023-05-07T08:18:02;4.50;;;3.00;;
74799;SDS011;63326;45.088;7.658;2023-05-07T08:20:29;5.20;;;3.08;;
74799;SDS011;63326;45.088;7.658;2023-05-07T08:22:57;5.22;;;3.25;;
74799;SDS011;63326;45.088;7.658;2023-05-07T08:25:25;3.88;;;2.78;;
74799;SDS011;63326;45.088;7.658;2023-05-07T08:27:52;4.05;;;2.60;;
74799;SDS011;63326;45.088;7.658;2023-05-07T08:30:19;5.35;;;2.15;;
74799;SDS011;63326;45.088;7.658;2023-05-07T08:32:47;3.50;;;2.08;;
74799;SDS011;63326;45.088;7.658;2023-05-07T08:35:13;4.10;;;2.22;;
74799;SDS011;63326;45.088;7.658;2023-05-07T08:37:40;5.13;;;2.97;;
74799;SDS011;63326;45.088;7.658;2023-05-07T08:40:08;5.05;;;2.90;;
74799;SDS011;63326;45.088;7.658;2023-05-07T08:42:39;7.43;;;3.22;;
74799;SDS011;63326;45.088;7.658;2023-05-07T08:45:08;4.45;;;2.78;;
74799;SDS011;63326;45.088;7.658;2023-05-07T08:47:42;4.75;;;2.88;;
74799;SDS011;63326;45.088;7.658;2023-05-07T08:50:16;4.40;;;2.50;;
74799;SDS011;63326;45.088;7.658;2023-05-07T08:52:43;5.38;;;2.67;;
74799;SDS011;63326;45.088;7.658;2023-05-07T08:55:11;4.53;;;3.10;;
74799;SDS011;63326;45.088;7.658;2023-05-07T08:57:41;4.65;;;2.70;;
74799;SDS011;63326;45.088;7.658;2023-05-07T09:00:09;4.53;;;2.90;;
74799;SDS011;63326;45.088;7.658;2023-05-07T09:02:38;3.83;;;2.25;;
74799;SDS011;63326;45.088;7.658;2023-05-07T09:05:07;5.63;;;2.72;;
74799;SDS011;63326;45.088;7.658;2023-05-07T09:07:35;6.05;;;3.42;;
74799;SDS011;63326;45.088;7.658;2023-05-07T09:10:05;5.32;;;3.20;;
74799;SDS011;63326;45.088;7.658;2023-05-07T09:12:34;5.10;;;2.80;;
74799;SDS011;63326;45.088;7.658;2023-05-07T09:15:07;3.30;;;2.05;;
74799;SDS011;63326;45.088;7.658;2023-05-07T09:17:35;4.75;;;3.05;;
74799;SDS011;63326;45.088;7.658;2023-05-07T09:20:03;4.40;;;2.75;;
74799;SDS011;63326;45.088;7.658;2023-05-07T09:22:38;3.88;;;2.33;;
74799;SDS011;63326;45.088;7.658;2023-05-07T09:25:09;4.05;;;2.30;;
74799;SDS011;63326;45.088;7.658;2023-05-07T09:27:37;4.22;;;2.53;;
74799;SDS011;63326;45.088;7.658;2023-05-07T09:30:04;4.28;;;2.55;;
74799;SDS011;63326;45.088;7.658;2023-05-07T09:32:36;5.00;;;3.15;;
74799;SDS011;63326;45.088;7.658;2023-05-07T09:35:14;4.47;;;2.67;;
74799;SDS011;63326;45.088;7.658;2023-05-07T09:37:47;4.15;;;2.33;;
74799;SDS011;63326;45.088;7.658;2023-05-07T09:40:21;5.22;;;2.05;;
74799;SDS011;63326;45.088;7.658;2023-05-07T09:42:50;4.32;;;2.72;;
74799;SDS011;63326;45.088;7.658;2023-05-07T09:45:22;4.68;;;2.50;;
74799;SDS011;63326;45.088;7.658;2023-05-07T09:47:49;5.50;;;2.33;;
74799;SDS011;63326;45.088;7.658;2023-05-07T09:50:19;4.82;;;2.83;;
74799;SDS011;63326;45.088;7.658;2023-05-07T09:52:52;3.60;;;2.53;;
74799;SDS011;63326;45.088;7.658;2023-05-07T09:55:20;7.30;;;2.70;;
74799;SDS011;63326;45.088;7.658;2023-05-07T09:57:50;4.90;;;2.70;;
74799;SDS011;63326;45.088;7.658;2023-05-07T10:00:18;4.22;;;3.10;;
74799;SDS011;63326;45.088;7.658;2023-05-07T10:02:48;6.20;;;2.55;;
74799;SDS011;63326;45.088;7.658;2023-05-07T10:05:24;5.03;;;2.65;;
74799;SDS011;63326;45.088;7.658;2023-05-07T10:07:55;8.57;;;2.78;;
74799;SDS011;63326;45.088;7.658;2023-05-07T10:10:24;4.20;;;2.30;;
74799;SDS011;63326;45.088;7.658;2023-05-07T10:12:52;4.15;;;2.10;;
74799;SDS011;63326;45.088;7.658;2023-05-07T10:15:27;4.82;;;2.78;;
74799;SDS011;63326;45.088;7.658;2023-05-07T10:17:56;5.40;;;3.80;;
74799;SDS011;63326;45.088;7.658;2023-05-07T10:20:24;4.93;;;2.90;;
74799;SDS011;63326;45.088;7.658;2023-05-07T10:22:55;4.78;;;2.63;;
74799;SDS011;63326;45.088;7.658;2023-05-07T10:25:30;4.47;;;3.28;;
74799;SDS011;63326;45.088;7.658;2023-05-07T10:28:06;5.95;;;2.50;;
74799;SDS011;63326;45.088;7.658;2023-05-07T10:33:36;3.50;;;2.40;;
74799;SDS011;63326;45.088;7.658;2023-05-07T10:36:06;5.30;;;2.13;;
74799;SDS011;63326;45.088;7.658;2023-05-07T10:38:34;5.18;;;2.80;;
74799;SDS011;63326;45.088;7.658;2023-05-07T10:46:13;3.75;;;2.55;;
74799;SDS011;63326;45.088;7.658;2023-05-07T10:51:37;3.97;;;2.58;;
74799;SDS011;63326;45.088;7.658;2023-05-07T10:54:25;4.03;;;2.92;;
74799;SDS011;63326;45.088;7.658;2023-05-07T10:57:22;3.85;;;2.75;;
74799;SDS011;63326;45.088;7.658;2023-05-07T11:05:37;3.70;;;2.80;;
74799;SDS011;63326;45.088;7.658;2023-05-07T11:08:14;4.75;;;2.58;;
74799;SDS011;63326;45.088;7.658;2023-05-07T11:10:54;3.83;;;2.50;;
74799;SDS011;63326;45.088;7.658;2023-05-07T11:13:41;5.40;;;3.03;;
74799;SDS011;63326;45.088;7.658;2023-05-07T11:16:44;4.47;;;3.05;;
74799;SDS011;63326;45.088;7.658;2023-05-07T11:19:24;4.80;;;3.03;;
74799;SDS011;63326;45.088;7.658;2023-05-07T11:22:37;3.97;;;2.95;;
74799;SDS011;63326;45.088;7.658;2023-05-07T11:25:21;3.47;;;2.50;;
74799;SDS011;63326;45.088;7.658;2023-05-07T11:27:55;4.18;;;3.53;;
74799;SDS011;63326;45.088;7.658;2023-05-07T11:30:24;5.35;;;2.83;;
74799;SDS011;63326;45.088;7.658;2023-05-07T11:32:51;4.90;;;3.03;;
74799;SDS011;63326;45.088;7.658;2023-05-07T11:35:18;4.25;;;2.78;;
74799;SDS011;63326;45.088;7.658;2023-05-07T11:37:49;6.93;;;3.90;;
74799;SDS011;63326;45.088;7.658;2023-05-07T11:40:16;6.28;;;2.60;;
74799;SDS011;63326;45.088;7.658;2023-05-07T11:42:42;5.72;;;3.33;;
74799;SDS011;63326;45.088;7.658;2023-05-07T11:45:09;5.18;;;3.30;;
74799;SDS011;63326;45.088;7.658;2023-05-07T11:47:37;5.28;;;2.97;;
74799;SDS011;63326;45.088;7.658;2023-05-07T11:50:07;5.32;;;3.50;;
74799;SDS011;63326;45.088;7.658;2023-05-07T11:55:02;5.03;;;3.47;;
74799;SDS011;63326;45.088;7.658;2023-05-07T11:57:32;6.45;;;3.83;;
74799;SDS011;63326;45.088;7.658;2023-05-07T12:00:00;4.43;;;2.88;;
74799;SDS011;63326;45.088;7.658;2023-05-07T12:02:40;5.13;;;3.20;;
74799;SDS011;63326;45.088;7.658;2023-05-07T12:05:08;4.15;;;2.55;;
74799;SDS011;63326;45.088;7.658;2023-05-07T12:07:36;5.70;;;3.42;;
74799;SDS011;63326;45.088;7.658;2023-05-07T12:10:06;4.65;;;3.30;;
74799;SDS011;63326;45.088;7.658;2023-05-07T12:12:40;4.55;;;3.42;;
74799;SDS011;63326;45.088;7.658;2023-05-07T12:15:10;5.05;;;3.55;;
74799;SDS011;63326;45.088;7.658;2023-05-07T12:17:37;5.10;;;3.42;;
74799;SDS011;63326;45.088;7.658;2023-05-07T12:20:05;5.22;;;3.70;;
74799;SDS011;63326;45.088;7.658;2023-05-07T12:22:32;9.73;;;3.70;;
74799;SDS011;63326;45.088;7.658;2023-05-07T12:24:59;4.68;;;3.25;;
74799;SDS011;63326;45.088;7.658;2023-05-07T12:27:26;5.15;;;3.60;;
74799;SDS011;63326;45.088;7.658;2023-05-07T12:29:52;6.93;;;5.03;;
74799;SDS011;63326;45.088;7.658;2023-05-07T12:32:20;5.97;;;3.42;;
74799;SDS011;63326;45.088;7.658;2023-05-07T12:34:50;5.03;;;4.10;;
74799;SDS011;63326;45.088;7.658;2023-05-07T12:37:23;5.63;;;3.38;;
74799;SDS011;63326;45.088;7.658;2023-05-07T12:40:08;8.52;;;3.33;;
74799;SDS011;63326;45.088;7.658;2023-05-07T12:42:36;5.07;;;3.30;;
74799;SDS011;63326;45.088;7.658;2023-05-07T12:45:07;4.47;;;3.42;;
74799;SDS011;63326;45.088;7.658;2023-05-07T12:47:36;6.95;;;3.00;;
74799;SDS011;63326;45.088;7.658;2023-05-07T12:50:07;5.38;;;3.38;;
74799;SDS011;63326;45.088;7.658;2023-05-07T12:52:33;4.22;;;3.38;;
74799;SDS011;63326;45.088;7.658;2023-05-07T12:57:37;7.60;;;3.88;;
74799;SDS011;63326;45.088;7.658;2023-05-07T13:00:04;5.60;;;3.50;;
74799;SDS011;63326;45.088;7.658;2023-05-07T13:02:38;5.30;;;3.60;;
74799;SDS011;63326;45.088;7.658;2023-05-07T13:05:06;4.82;;;3.72;;
74799;SDS011;63326;45.088;7.658;2023-05-07T13:07:35;4.25;;;3.38;;
74799;SDS011;63326;45.088;7.658;2023-05-07T13:10:03;4.32;;;3.42;;
74799;SDS011;63326;45.088;7.658;2023-05-07T13:12:30;4.30;;;3.53;;
74799;SDS011;63326;45.088;7.658;2023-05-07T13:17:23;5.47;;;4.93;;
74799;SDS011;63326;45.088;7.658;2023-05-07T13:19:50;4.28;;;2.95;;
74799;SDS011;63326;45.088;7.658;2023-05-07T13:22:17;4.13;;;3.28;;
74799;SDS011;63326;45.088;7.658;2023-05-07T13:27:10;5.28;;;3.65;;
74799;SDS011;63326;45.088;7.658;2023-05-07T13:29:37;4.22;;;3.35;;
74799;SDS011;63326;45.088;7.658;2023-05-07T13:32:04;4.07;;;3.05;;
74799;SDS011;63326;45.088;7.658;2023-05-07T13:34:31;4.00;;;2.83;;
74799;SDS011;63326;45.088;7.658;2023-05-07T13:36:57;5.03;;;3.53;;
74799;SDS011;63326;45.088;7.658;2023-05-07T13:39:24;4.07;;;3.20;;
74799;SDS011;63326;45.088;7.658;2023-05-07T13:41:51;4.30;;;3.60;;
74799;SDS011;63326;45.088;7.658;2023-05-07T13:44:18;4.00;;;2.80;;
74799;SDS011;63326;45.088;7.658;2023-05-07T13:46:44;5.13;;;3.72;;
74799;SDS011;63326;45.088;7.658;2023-05-07T13:49:11;4.60;;;3.00;;
74799;SDS011;63326;45.088;7.658;2023-05-07T13:51:39;4.50;;;2.42;;
74799;SDS011;63326;45.088;7.658;2023-05-07T13:54:05;4.05;;;2.88;;
74799;SDS011;63326;45.088;7.658;2023-05-07T13:56:32;4.10;;;3.28;;
74799;SDS011;63326;45.088;7.658;2023-05-07T13:58:59;4.13;;;2.97;;
74799;SDS011;63326;45.088;7.658;2023-05-07T14:01:26;3.83;;;2.25;;
74799;SDS011;63326;45.088;7.658;2023-05-07T14:03:53;5.47;;;3.70;;
74799;SDS011;63326;45.088;7.658;2023-05-07T14:06:21;4.43;;;2.92;;
74799;SDS011;63326;45.088;7.658;2023-05-07T14:11:15;4.93;;;3.28;;
74799;SDS011;63326;45.088;7.658;2023-05-07T14:13:42;4.65;;;2.88;;
74799;SDS011;63326;45.088;7.658;2023-05-07T14:16:09;6.07;;;3.97;;
74799;SDS011;63326;45.088;7.658;2023-05-07T14:18:35;4.47;;;3.60;;
74799;SDS011;63326;45.088;7.658;2023-05-07T14:21:04;5.25;;;3.60;;
74799;SDS011;63326;45.088;7.658;2023-05-07T14:23:32;4.50;;;3.30;;
74799;SDS011;63326;45.088;7.658;2023-05-07T14:25:59;10.52;;;3.90;;
74799;SDS011;63326;45.088;7.658;2023-05-07T14:28:26;4.60;;;2.70;;
74799;SDS011;63326;45.088;7.658;2023-05-07T14:30:52;4.25;;;3.30;;
74799;SDS011;63326;45.088;7.658;2023-05-07T14:33:19;5.35;;;3.60;;
74799;SDS011;63326;45.088;7.658;2023-05-07T14:35:46;4.90;;;3.85;;
74799;SDS011;63326;45.088;7.658;2023-05-07T14:38:15;4.30;;;2.63;;
74799;SDS011;63326;45.088;7.658;2023-05-07T14:40:42;5.57;;;3.42;;
74799;SDS011;63326;45.088;7.658;2023-05-07T14:43:08;5.57;;;3.35;;
74799;SDS011;63326;45.088;7.658;2023-05-07T14:45:35;6.65;;;3.35;;
74799;SDS011;63326;45.088;7.658;2023-05-07T14:48:02;5.10;;;3.05;;
74799;SDS011;63326;45.088;7.658;2023-05-07T14:50:31;4.93;;;3.20;;
74799;SDS011;63326;45.088;7.658;2023-05-07T14:52:57;5.40;;;2.72;;
74799;SDS011;63326;45.088;7.658;2023-05-07T14:55:24;3.90;;;2.78;;
74799;SDS011;63326;45.088;7.658;2023-05-07T14:57:51;4.88;;;3.08;;
74799;SDS011;63326;45.088;7.658;2023-05-07T15:00:18;4.95;;;3.25;;
74799;SDS011;63326;45.088;7.658;2023-05-07T15:02:45;4.78;;;2.83;;
74799;SDS011;63326;45.088;7.658;2023-05-07T15:05:12;5.18;;;2.95;;
74799;SDS011;63326;45.088;7.658;2023-05-07T15:07:40;4.53;;;2.50;;
74799;SDS011;63326;45.088;7.658;2023-05-07T15:10:07;4.75;;;2.75;;
74799;SDS011;63326;45.088;7.658;2023-05-07T15:12:34;4.45;;;2.75;;
74799;SDS011;63326;45.088;7.658;2023-05-07T15:15:01;4.85;;;3.35;;
74799;SDS011;63326;45.088;7.658;2023-05-07T15:17:28;5.57;;;3.13;;
74799;SDS011;63326;45.088;7.658;2023-05-07T15:19:55;4.20;;;3.13;;
74799;SDS011;63326;45.088;7.658;2023-05-07T15:22:22;5.70;;;3.42;;
74799;SDS011;63326;45.088;7.658;2023-05-07T15:24:48;4.40;;;2.97;;
74799;SDS011;63326;45.088;7.658;2023-05-07T15:27:15;5.82;;;3.42;;
74799;SDS011;63326;45.088;7.658;2023-05-07T15:29:43;4.55;;;3.15;;
74799;SDS011;63326;45.088;7.658;2023-05-07T15:32:10;5.00;;;3.20;;
74799;SDS011;63326;45.088;7.658;2023-05-07T15:34:37;5.10;;;3.65;;
74799;SDS011;63326;45.088;7.658;2023-05-07T15:37:04;7.43;;;4.80;;
74799;SDS011;63326;45.088;7.658;2023-05-07T15:39:31;6.53;;;3.70;;
74799;SDS011;63326;45.088;7.658;2023-05-07T15:41:57;15.30;;;5.00;;